Portada
METAR-TAF:

METAR-TAF

Aeroports :

Honiara, Guadalcanal, Illes Salomó

latitud: 09-25S, longitud: 160-03E, altitud: 8 m

Observació

L'informe es va fer fa 59 minuts, a les 04:00 UTC
Vent 16 kt del Oest
Temperatura 31°C
Humitat 71%
Pressió 1004 hPa
Visibilitat 10 km o més
Escasses núvols a una alçada de 1900 ft
Núvols disperses a una alçada de 11000 ft

METAR: AGGH 200400Z 27016KT 9999 FEW019 SCT110 31/25 Q1004

Hora: 15:59 (04:59 UTC)

Pronòstic

L'informe es va fer fa 5 hores i 49 minuts, a les 23:10 UTC
Pronòstic vàlid del 20 a les 00 UTC al 20 a les 24 UTC
Vent 15 kt del Oest
Visibilitat 10 km o més
Núvols disperses a una alçada de 2000 ft
Núvols disperses a una alçada de 3500 ft
Probabilitat 40%
entre IN i TE UTC
Visibilitat: 1007 m
Cel ennuvolat a una alçada de 1500 ft
Escasses núvols a una alçada de 1600 ft, Cumulonimbus.

TAF: AGGH 192310Z 2000/2024 27015KT 9999 SCT020 SCT035 PROB40 INTER 2000/2007 5000 TSSH BKN015 FEW016CB T 30 31 30 28 Q 1007 1005 1005 1007

Observacions i pronòstics meteorològics de més de 4000 aeroports (METAR i TAF).

Les estacions disponibles són els punts grocs i vermells al mapa.

Posi el ratolí al punt desitjat per veure el nom de l'estació.

Feu clic per veure les observacions i els pronòstics meteorològics.

Per canviar el mapa: feu clic els botons verds amb una creu de color negre per apropar; al botó verd amb un guió per allunyar la imatge; o en les fletxes verdes per a mapes adjacents.


METAR-TAF: